sensor_id;sensor_type;location;lat;lon;timestamp;P1;durP1;ratioP1;P2;durP2;ratioP2
12129;SDS011;6128;59.340;18.040;2023-04-24T00:01:12;2.50;;;2.07;;
12129;SDS011;6128;59.340;18.040;2023-04-24T00:03:40;2.00;;;1.90;;
12129;SDS011;6128;59.340;18.040;2023-04-24T00:06:07;2.80;;;2.10;;
12129;SDS011;6128;59.340;18.040;2023-04-24T00:08:34;3.17;;;2.17;;
12129;SDS011;6128;59.340;18.040;2023-04-24T00:11:02;2.30;;;2.10;;
12129;SDS011;6128;59.340;18.040;2023-04-24T00:13:29;2.03;;;1.90;;
12129;SDS011;6128;59.340;18.040;2023-04-24T00:15:58;3.03;;;2.23;;
12129;SDS011;6128;59.340;18.040;2023-04-24T00:18:25;2.63;;;2.30;;
12129;SDS011;6128;59.340;18.040;2023-04-24T00:20:52;2.73;;;2.20;;
12129;SDS011;6128;59.340;18.040;2023-04-24T00:23:19;2.57;;;2.07;;
12129;SDS011;6128;59.340;18.040;2023-04-24T00:25:46;2.07;;;1.90;;
12129;SDS011;6128;59.340;18.040;2023-04-24T00:28:13;2.87;;;2.47;;
12129;SDS011;6128;59.340;18.040;2023-04-24T00:30:40;3.27;;;2.20;;
12129;SDS011;6128;59.340;18.040;2023-04-24T00:33:09;2.73;;;2.00;;
12129;SDS011;6128;59.340;18.040;2023-04-24T00:35:36;2.60;;;2.30;;
12129;SDS011;6128;59.340;18.040;2023-04-24T00:38:03;2.37;;;2.17;;
12129;SDS011;6128;59.340;18.040;2023-04-24T00:40:30;2.60;;;2.37;;
12129;SDS011;6128;59.340;18.040;2023-04-24T00:42:58;2.83;;;1.93;;
12129;SDS011;6128;59.340;18.040;2023-04-24T00:45:25;3.60;;;2.70;;
12129;SDS011;6128;59.340;18.040;2023-04-24T00:47:52;3.33;;;3.03;;
12129;SDS011;6128;59.340;18.040;2023-04-24T00:50:20;4.50;;;3.33;;
12129;SDS011;6128;59.340;18.040;2023-04-24T00:52:48;5.37;;;4.00;;
12129;SDS011;6128;59.340;18.040;2023-04-24T00:55:15;4.60;;;4.00;;
12129;SDS011;6128;59.340;18.040;2023-04-24T00:57:43;4.67;;;3.10;;
12129;SDS011;6128;59.340;18.040;2023-04-24T01:00:11;3.60;;;2.53;;
12129;SDS011;6128;59.340;18.040;2023-04-24T01:02:40;3.00;;;2.60;;
12129;SDS011;6128;59.340;18.040;2023-04-24T01:05:10;2.60;;;2.23;;
12129;SDS011;6128;59.340;18.040;2023-04-24T01:07:39;5.00;;;2.60;;
12129;SDS011;6128;59.340;18.040;2023-04-24T01:10:10;3.43;;;2.60;;
12129;SDS011;6128;59.340;18.040;2023-04-24T01:12:39;4.00;;;3.00;;
12129;SDS011;6128;59.340;18.040;2023-04-24T01:15:06;4.00;;;3.20;;
12129;SDS011;6128;59.340;18.040;2023-04-24T01:17:34;4.27;;;3.47;;
12129;SDS011;6128;59.340;18.040;2023-04-24T01:20:02;4.43;;;3.40;;
12129;SDS011;6128;59.340;18.040;2023-04-24T01:22:32;4.63;;;3.43;;
12129;SDS011;6128;59.340;18.040;2023-04-24T01:25:00;4.17;;;3.50;;
12129;SDS011;6128;59.340;18.040;2023-04-24T01:27:27;4.27;;;3.40;;
12129;SDS011;6128;59.340;18.040;2023-04-24T01:29:54;5.60;;;3.47;;
12129;SDS011;6128;59.340;18.040;2023-04-24T01:32:22;3.50;;;3.20;;
12129;SDS011;6128;59.340;18.040;2023-04-24T01:34:50;4.77;;;3.60;;
12129;SDS011;6128;59.340;18.040;2023-04-24T01:37:17;4.00;;;3.30;;
12129;SDS011;6128;59.340;18.040;2023-04-24T01:39:46;3.60;;;2.90;;
12129;SDS011;6128;59.340;18.040;2023-04-24T01:42:13;3.70;;;3.07;;
12129;SDS011;6128;59.340;18.040;2023-04-24T01:44:40;4.23;;;3.30;;
12129;SDS011;6128;59.340;18.040;2023-04-24T01:47:08;5.23;;;2.97;;
12129;SDS011;6128;59.340;18.040;2023-04-24T01:49:35;4.03;;;2.93;;
12129;SDS011;6128;59.340;18.040;2023-04-24T01:52:04;4.13;;;3.10;;
12129;SDS011;6128;59.340;18.040;2023-04-24T01:54:31;3.27;;;2.53;;
12129;SDS011;6128;59.340;18.040;2023-04-24T01:57:00;3.90;;;2.70;;
12129;SDS011;6128;59.340;18.040;2023-04-24T01:59:28;3.60;;;1.97;;
12129;SDS011;6128;59.340;18.040;2023-04-24T02:01:56;1.63;;;1.50;;
12129;SDS011;6128;59.340;18.040;2023-04-24T02:04:23;2.60;;;1.30;;
12129;SDS011;6128;59.340;18.040;2023-04-24T02:06:50;1.40;;;1.30;;
12129;SDS011;6128;59.340;18.040;2023-04-24T02:09:17;2.73;;;1.50;;
12129;SDS011;6128;59.340;18.040;2023-04-24T02:11:44;1.57;;;1.10;;
12129;SDS011;6128;59.340;18.040;2023-04-24T02:14:13;3.60;;;1.30;;
12129;SDS011;6128;59.340;18.040;2023-04-24T02:16:40;1.40;;;1.30;;
12129;SDS011;6128;59.340;18.040;2023-04-24T02:19:07;2.07;;;1.70;;
12129;SDS011;6128;59.340;18.040;2023-04-24T02:21:34;2.30;;;1.40;;
12129;SDS011;6128;59.340;18.040;2023-04-24T02:24:01;2.60;;;1.80;;
12129;SDS011;6128;59.340;18.040;2023-04-24T02:26:28;3.07;;;1.70;;
12129;SDS011;6128;59.340;18.040;2023-04-24T02:28:56;3.53;;;2.30;;
12129;SDS011;6128;59.340;18.040;2023-04-24T02:31:25;5.53;;;2.20;;
12129;SDS011;6128;59.340;18.040;2023-04-24T02:33:52;3.83;;;1.60;;
12129;SDS011;6128;59.340;18.040;2023-04-24T02:36:19;2.67;;;2.00;;
12129;SDS011;6128;59.340;18.040;2023-04-24T02:38:46;3.83;;;2.00;;
12129;SDS011;6128;59.340;18.040;2023-04-24T02:41:13;3.27;;;2.23;;
12129;SDS011;6128;59.340;18.040;2023-04-24T02:43:40;2.80;;;2.00;;
12129;SDS011;6128;59.340;18.040;2023-04-24T02:46:07;4.13;;;2.30;;
12129;SDS011;6128;59.340;18.040;2023-04-24T02:48:36;3.70;;;2.10;;
12129;SDS011;6128;59.340;18.040;2023-04-24T02:51:03;8.00;;;2.50;;
12129;SDS011;6128;59.340;18.040;2023-04-24T02:53:31;4.30;;;1.93;;
12129;SDS011;6128;59.340;18.040;2023-04-24T02:55:58;3.37;;;2.47;;
12129;SDS011;6128;59.340;18.040;2023-04-24T02:58:25;5.03;;;3.20;;
12129;SDS011;6128;59.340;18.040;2023-04-24T03:00:53;3.40;;;2.33;;
12129;SDS011;6128;59.340;18.040;2023-04-24T03:03:21;6.70;;;3.17;;
12129;SDS011;6128;59.340;18.040;2023-04-24T03:05:50;4.70;;;2.87;;
12129;SDS011;6128;59.340;18.040;2023-04-24T03:08:17;4.13;;;2.30;;
12129;SDS011;6128;59.340;18.040;2023-04-24T03:10:45;5.33;;;3.00;;
12129;SDS011;6128;59.340;18.040;2023-04-24T03:13:12;4.50;;;3.00;;
12129;SDS011;6128;59.340;18.040;2023-04-24T03:15:39;3.43;;;2.50;;
12129;SDS011;6128;59.340;18.040;2023-04-24T03:18:06;3.97;;;2.50;;
12129;SDS011;6128;59.340;18.040;2023-04-24T03:20:33;3.70;;;2.80;;
12129;SDS011;6128;59.340;18.040;2023-04-24T03:23:03;3.67;;;3.17;;
12129;SDS011;6128;59.340;18.040;2023-04-24T03:25:30;4.30;;;3.20;;
12129;SDS011;6128;59.340;18.040;2023-04-24T03:27:57;4.43;;;3.30;;
12129;SDS011;6128;59.340;18.040;2023-04-24T03:30:24;5.20;;;3.50;;
12129;SDS011;6128;59.340;18.040;2023-04-24T03:32:52;4.93;;;3.53;;
12129;SDS011;6128;59.340;18.040;2023-04-24T03:35:19;6.30;;;3.60;;
12129;SDS011;6128;59.340;18.040;2023-04-24T03:37:47;5.13;;;3.33;;
12129;SDS011;6128;59.340;18.040;2023-04-24T03:40:15;4.53;;;3.53;;
12129;SDS011;6128;59.340;18.040;2023-04-24T03:42:42;5.53;;;3.63;;
12129;SDS011;6128;59.340;18.040;2023-04-24T03:45:10;6.00;;;3.67;;
12129;SDS011;6128;59.340;18.040;2023-04-24T03:47:37;4.80;;;3.97;;
12129;SDS011;6128;59.340;18.040;2023-04-24T03:50:04;4.43;;;3.63;;
12129;SDS011;6128;59.340;18.040;2023-04-24T03:52:32;4.20;;;3.53;;
12129;SDS011;6128;59.340;18.040;2023-04-24T03:54:59;4.57;;;3.23;;
12129;SDS011;6128;59.340;18.040;2023-04-24T03:57:28;5.00;;;3.43;;
12129;SDS011;6128;59.340;18.040;2023-04-24T03:59:55;4.00;;;3.03;;
12129;SDS011;6128;59.340;18.040;2023-04-24T04:02:22;6.60;;;3.13;;
12129;SDS011;6128;59.340;18.040;2023-04-24T04:04:49;5.37;;;3.20;;
12129;SDS011;6128;59.340;18.040;2023-04-24T04:07:16;6.50;;;3.90;;
12129;SDS011;6128;59.340;18.040;2023-04-24T04:09:43;4.57;;;2.83;;
12129;SDS011;6128;59.340;18.040;2023-04-24T04:12:10;6.70;;;3.13;;
12129;SDS011;6128;59.340;18.040;2023-04-24T04:14:39;5.10;;;3.17;;
12129;SDS011;6128;59.340;18.040;2023-04-24T04:17:06;6.87;;;3.37;;
12129;SDS011;6128;59.340;18.040;2023-04-24T04:19:33;3.97;;;2.97;;
12129;SDS011;6128;59.340;18.040;2023-04-24T04:22:00;4.10;;;2.97;;
12129;SDS011;6128;59.340;18.040;2023-04-24T04:24:27;4.20;;;3.30;;
12129;SDS011;6128;59.340;18.040;2023-04-24T04:26:55;4.93;;;3.30;;
12129;SDS011;6128;59.340;18.040;2023-04-24T04:29:23;4.43;;;3.23;;
12129;SDS011;6128;59.340;18.040;2023-04-24T04:31:52;4.73;;;3.03;;
12129;SDS011;6128;59.340;18.040;2023-04-24T04:34:20;4.67;;;3.17;;
12129;SDS011;6128;59.340;18.040;2023-04-24T04:36:47;4.53;;;3.23;;
12129;SDS011;6128;59.340;18.040;2023-04-24T04:39:15;3.63;;;2.77;;
12129;SDS011;6128;59.340;18.040;2023-04-24T04:41:43;5.30;;;3.00;;
12129;SDS011;6128;59.340;18.040;2023-04-24T04:44:11;5.53;;;3.50;;
12129;SDS011;6128;59.340;18.040;2023-04-24T04:46:39;5.27;;;3.30;;
12129;SDS011;6128;59.340;18.040;2023-04-24T04:49:08;4.73;;;3.37;;
12129;SDS011;6128;59.340;18.040;2023-04-24T04:51:36;4.53;;;3.70;;
12129;SDS011;6128;59.340;18.040;2023-04-24T04:54:03;6.17;;;3.07;;
12129;SDS011;6128;59.340;18.040;2023-04-24T04:56:30;5.80;;;3.40;;
12129;SDS011;6128;59.340;18.040;2023-04-24T04:58:57;5.83;;;3.87;;
12129;SDS011;6128;59.340;18.040;2023-04-24T05:01:25;5.40;;;3.23;;
12129;SDS011;6128;59.340;18.040;2023-04-24T05:03:52;6.10;;;3.70;;
12129;SDS011;6128;59.340;18.040;2023-04-24T05:06:21;4.70;;;3.23;;
12129;SDS011;6128;59.340;18.040;2023-04-24T05:08:48;6.20;;;3.77;;
12129;SDS011;6128;59.340;18.040;2023-04-24T05:11:16;4.60;;;3.40;;
12129;SDS011;6128;59.340;18.040;2023-04-24T05:13:43;4.70;;;3.80;;
12129;SDS011;6128;59.340;18.040;2023-04-24T05:16:10;6.40;;;3.53;;
12129;SDS011;6128;59.340;18.040;2023-04-24T05:18:38;4.80;;;3.43;;
12129;SDS011;6128;59.340;18.040;2023-04-24T05:21:05;3.50;;;2.57;;
12129;SDS011;6128;59.340;18.040;2023-04-24T05:23:33;4.97;;;3.00;;
12129;SDS011;6128;59.340;18.040;2023-04-24T05:26:00;4.87;;;3.07;;
12129;SDS011;6128;59.340;18.040;2023-04-24T05:28:27;3.80;;;2.80;;
12129;SDS011;6128;59.340;18.040;2023-04-24T05:30:55;4.90;;;3.17;;
12129;SDS011;6128;59.340;18.040;2023-04-24T05:33:22;4.83;;;3.13;;
12129;SDS011;6128;59.340;18.040;2023-04-24T05:35:49;6.43;;;2.97;;
12129;SDS011;6128;59.340;18.040;2023-04-24T05:38:16;5.30;;;3.10;;
12129;SDS011;6128;59.340;18.040;2023-04-24T05:40:46;4.83;;;3.00;;
12129;SDS011;6128;59.340;18.040;2023-04-24T05:43:13;3.83;;;2.73;;
12129;SDS011;6128;59.340;18.040;2023-04-24T05:45:40;3.67;;;2.63;;
12129;SDS011;6128;59.340;18.040;2023-04-24T05:48:07;3.30;;;2.47;;
12129;SDS011;6128;59.340;18.040;2023-04-24T05:50:34;3.27;;;2.30;;
12129;SDS011;6128;59.340;18.040;2023-04-24T05:53:01;4.37;;;2.43;;
12129;SDS011;6128;59.340;18.040;2023-04-24T05:55:28;4.70;;;2.50;;
12129;SDS011;6128;59.340;18.040;2023-04-24T05:57:58;1.70;;;1.47;;
12129;SDS011;6128;59.340;18.040;2023-04-24T06:00:25;2.67;;;1.80;;
12129;SDS011;6128;59.340;18.040;2023-04-24T06:02:52;2.10;;;1.70;;
12129;SDS011;6128;59.340;18.040;2023-04-24T06:05:19;3.40;;;2.10;;
12129;SDS011;6128;59.340;18.040;2023-04-24T06:07:46;2.37;;;1.63;;
12129;SDS011;6128;59.340;18.040;2023-04-24T06:10:14;2.97;;;2.03;;
12129;SDS011;6128;59.340;18.040;2023-04-24T06:12:41;3.00;;;2.20;;
12129;SDS011;6128;59.340;18.040;2023-04-24T06:15:10;3.30;;;2.30;;
12129;SDS011;6128;59.340;18.040;2023-04-24T06:17:38;3.03;;;2.37;;
12129;SDS011;6128;59.340;18.040;2023-04-24T06:20:05;3.57;;;2.20;;
12129;SDS011;6128;59.340;18.040;2023-04-24T06:22:33;3.20;;;2.10;;
12129;SDS011;6128;59.340;18.040;2023-04-24T06:25:00;2.70;;;1.90;;
12129;SDS011;6128;59.340;18.040;2023-04-24T06:27:27;3.50;;;2.13;;
12129;SDS011;6128;59.340;18.040;2023-04-24T06:29:54;3.93;;;1.63;;
12129;SDS011;6128;59.340;18.040;2023-04-24T06:32:23;2.83;;;1.97;;
12129;SDS011;6128;59.340;18.040;2023-04-24T06:34:52;2.40;;;1.90;;
12129;SDS011;6128;59.340;18.040;2023-04-24T06:37:19;3.10;;;1.80;;
12129;SDS011;6128;59.340;18.040;2023-04-24T06:39:46;3.00;;;2.20;;
12129;SDS011;6128;59.340;18.040;2023-04-24T06:42:13;2.53;;;1.90;;
12129;SDS011;6128;59.340;18.040;2023-04-24T06:44:41;3.83;;;2.40;;
12129;SDS011;6128;59.340;18.040;2023-04-24T06:47:08;2.00;;;1.90;;
12129;SDS011;6128;59.340;18.040;2023-04-24T06:49:37;1.90;;;1.47;;
12129;SDS011;6128;59.340;18.040;2023-04-24T06:52:04;1.93;;;1.37;;
12129;SDS011;6128;59.340;18.040;2023-04-24T06:54:32;2.00;;;1.80;;
12129;SDS011;6128;59.340;18.040;2023-04-24T06:56:59;2.57;;;1.70;;
12129;SDS011;6128;59.340;18.040;2023-04-24T06:59:27;2.10;;;1.87;;
12129;SDS011;6128;59.340;18.040;2023-04-24T07:01:54;2.67;;;1.90;;
12129;SDS011;6128;59.340;18.040;2023-04-24T07:04:22;2.07;;;1.87;;
12129;SDS011;6128;59.340;18.040;2023-04-24T07:06:51;4.40;;;1.50;;
12129;SDS011;6128;59.340;18.040;2023-04-24T07:09:21;2.50;;;1.57;;
12129;SDS011;6128;59.340;18.040;2023-04-24T07:11:48;3.33;;;1.67;;
12129;SDS011;6128;59.340;18.040;2023-04-24T07:14:16;2.63;;;1.50;;
12129;SDS011;6128;59.340;18.040;2023-04-24T07:16:44;2.57;;;1.60;;
12129;SDS011;6128;59.340;18.040;2023-04-24T07:19:11;2.37;;;1.40;;
12129;SDS011;6128;59.340;18.040;2023-04-24T07:21:38;2.77;;;2.10;;
12129;SDS011;6128;59.340;18.040;2023-04-24T07:24:07;2.50;;;1.50;;
12129;SDS011;6128;59.340;18.040;2023-04-24T07:26:36;1.77;;;1.60;;
12129;SDS011;6128;59.340;18.040;2023-04-24T07:29:04;1.97;;;1.50;;
12129;SDS011;6128;59.340;18.040;2023-04-24T07:31:32;3.50;;;1.40;;
12129;SDS011;6128;59.340;18.040;2023-04-24T07:33:59;1.83;;;1.40;;
12129;SDS011;6128;59.340;18.040;2023-04-24T07:36:26;2.10;;;1.93;;
12129;SDS011;6128;59.340;18.040;2023-04-24T07:38:53;2.43;;;1.80;;
12129;SDS011;6128;59.340;18.040;2023-04-24T07:41:23;1.90;;;1.17;;
12129;SDS011;6128;59.340;18.040;2023-04-24T07:43:52;1.40;;;1.30;;
12129;SDS011;6128;59.340;18.040;2023-04-24T07:46:20;2.87;;;1.60;;
12129;SDS011;6128;59.340;18.040;2023-04-24T07:48:48;1.77;;;1.57;;
12129;SDS011;6128;59.340;18.040;2023-04-24T07:51:16;2.13;;;1.53;;
12129;SDS011;6128;59.340;18.040;2023-04-24T07:53:43;1.10;;;0.80;;
12129;SDS011;6128;59.340;18.040;2023-04-24T07:56:10;2.70;;;2.50;;
12129;SDS011;6128;59.340;18.040;2023-04-24T07:58:39;2.50;;;2.30;;
12129;SDS011;6128;59.340;18.040;2023-04-24T08:01:06;2.10;;;1.90;;
12129;SDS011;6128;59.340;18.040;2023-04-24T08:03:33;1.90;;;1.70;;
12129;SDS011;6128;59.340;18.040;2023-04-24T08:06:00;1.70;;;1.60;;
12129;SDS011;6128;59.340;18.040;2023-04-24T08:08:27;2.20;;;1.13;;
12129;SDS011;6128;59.340;18.040;2023-04-24T08:10:55;1.70;;;1.23;;
12129;SDS011;6128;59.340;18.040;2023-04-24T08:13:22;1.40;;;1.30;;
12129;SDS011;6128;59.340;18.040;2023-04-24T08:15:50;1.87;;;1.00;;
12129;SDS011;6128;59.340;18.040;2023-04-24T08:18:17;1.30;;;1.20;;
12129;SDS011;6128;59.340;18.040;2023-04-24T08:20:44;3.33;;;1.30;;
12129;SDS011;6128;59.340;18.040;2023-04-24T08:23:12;2.33;;;1.20;;
12129;SDS011;6128;59.340;18.040;2023-04-24T08:25:39;1.40;;;1.07;;
12129;SDS011;6128;59.340;18.040;2023-04-24T08:28:07;1.50;;;1.40;;
12129;SDS011;6128;59.340;18.040;2023-04-24T08:30:36;1.00;;;0.90;;
12129;SDS011;6128;59.340;18.040;2023-04-24T08:33:05;1.73;;;1.10;;
12129;SDS011;6128;59.340;18.040;2023-04-24T08:35:32;1.07;;;0.97;;
12129;SDS011;6128;59.340;18.040;2023-04-24T08:37:59;1.00;;;0.90;;
12129;SDS011;6128;59.340;18.040;2023-04-24T08:40:27;1.63;;;1.00;;
12129;SDS011;6128;59.340;18.040;2023-04-24T08:42:58;0.83;;;0.83;;
12129;SDS011;6128;59.340;18.040;2023-04-24T08:45:26;1.47;;;1.37;;
12129;SDS011;6128;59.340;18.040;2023-04-24T08:47:53;2.17;;;1.30;;
12129;SDS011;6128;59.340;18.040;2023-04-24T08:50:22;1.30;;;1.13;;
12129;SDS011;6128;59.340;18.040;2023-04-24T08:52:49;1.70;;;0.80;;
12129;SDS011;6128;59.340;18.040;2023-04-24T08:55:18;1.87;;;0.83;;
12129;SDS011;6128;59.340;18.040;2023-04-24T08:57:49;2.03;;;1.00;;
12129;SDS011;6128;59.340;18.040;2023-04-24T09:00:18;1.50;;;1.20;;
12129;SDS011;6128;59.340;18.040;2023-04-24T09:02:46;2.60;;;1.30;;
12129;SDS011;6128;59.340;18.040;2023-04-24T09:05:16;2.00;;;0.80;;
12129;SDS011;6128;59.340;18.040;2023-04-24T09:07:47;1.70;;;0.90;;
12129;SDS011;6128;59.340;18.040;2023-04-24T09:10:19;2.20;;;1.07;;
12129;SDS011;6128;59.340;18.040;2023-04-24T09:12:47;1.10;;;1.00;;
12129;SDS011;6128;59.340;18.040;2023-04-24T09:15:16;1.60;;;1.07;;
12129;SDS011;6128;59.340;18.040;2023-04-24T09:17:43;2.67;;;1.93;;
12129;SDS011;6128;59.340;18.040;2023-04-24T09:20:10;2.33;;;1.37;;
12129;SDS011;6128;59.340;18.040;2023-04-24T09:22:37;2.37;;;1.00;;
12129;SDS011;6128;59.340;18.040;2023-04-24T09:25:07;3.67;;;1.20;;
12129;SDS011;6128;59.340;18.040;2023-04-24T09:27:38;1.30;;;1.20;;
12129;SDS011;6128;59.340;18.040;2023-04-24T09:30:09;1.30;;;1.10;;
12129;SDS011;6128;59.340;18.040;2023-04-24T09:32:37;1.30;;;1.20;;
12129;SDS011;6128;59.340;18.040;2023-04-24T09:35:10;1.03;;;0.90;;
12129;SDS011;6128;59.340;18.040;2023-04-24T09:37:39;1.53;;;1.13;;
12129;SDS011;6128;59.340;18.040;2023-04-24T09:40:13;2.20;;;1.17;;
12129;SDS011;6128;59.340;18.040;2023-04-24T09:42:45;2.70;;;1.20;;
12129;SDS011;6128;59.340;18.040;2023-04-24T09:45:17;1.33;;;1.20;;
12129;SDS011;6128;59.340;18.040;2023-04-24T09:47:45;5.27;;;2.00;;
12129;SDS011;6128;59.340;18.040;2023-04-24T09:50:13;2.37;;;1.47;;
12129;SDS011;6128;59.340;18.040;2023-04-24T09:52:42;2.17;;;1.50;;
12129;SDS011;6128;59.340;18.040;2023-04-24T09:55:10;1.33;;;1.20;;
12129;SDS011;6128;59.340;18.040;2023-04-24T09:57:48;1.83;;;1.20;;
12129;SDS011;6128;59.340;18.040;2023-04-24T10:00:22;1.77;;;1.30;;
12129;SDS011;6128;59.340;18.040;2023-04-24T10:02:54;2.00;;;1.40;;
12129;SDS011;6128;59.340;18.040;2023-04-24T10:05:25;1.73;;;1.30;;
12129;SDS011;6128;59.340;18.040;2023-04-24T10:07:57;1.97;;;1.43;;
12129;SDS011;6128;59.340;18.040;2023-04-24T10:10:28;2.40;;;1.40;;
12129;SDS011;6128;59.340;18.040;2023-04-24T10:12:55;3.03;;;1.30;;
12129;SDS011;6128;59.340;18.040;2023-04-24T10:15:23;3.17;;;1.33;;
12129;SDS011;6128;59.340;18.040;2023-04-24T10:17:52;3.73;;;1.67;;
12129;SDS011;6128;59.340;18.040;2023-04-24T10:20:20;3.73;;;1.43;;
12129;SDS011;6128;59.340;18.040;2023-04-24T10:22:48;3.33;;;1.57;;
12129;SDS011;6128;59.340;18.040;2023-04-24T10:25:18;1.33;;;1.10;;
12129;SDS011;6128;59.340;18.040;2023-04-24T10:27:49;3.00;;;1.53;;
12129;SDS011;6128;59.340;18.040;2023-04-24T10:30:18;3.00;;;1.60;;
12129;SDS011;6128;59.340;18.040;2023-04-24T10:32:46;1.40;;;1.20;;
12129;SDS011;6128;59.340;18.040;2023-04-24T10:35:13;1.80;;;1.40;;
12129;SDS011;6128;59.340;18.040;2023-04-24T10:37:42;1.20;;;1.10;;
12129;SDS011;6128;59.340;18.040;2023-04-24T10:40:11;1.77;;;1.20;;
12129;SDS011;6128;59.340;18.040;2023-04-24T10:42:48;1.97;;;1.43;;
12129;SDS011;6128;59.340;18.040;2023-04-24T10:45:18;1.37;;;1.27;;
12129;SDS011;6128;59.340;18.040;2023-04-24T10:47:53;1.83;;;1.50;;
12129;SDS011;6128;59.340;18.040;2023-04-24T10:50:26;5.07;;;1.60;;
12129;SDS011;6128;59.340;18.040;2023-04-24T10:53:04;3.90;;;1.60;;
12129;SDS011;6128;59.340;18.040;2023-04-24T10:55:42;3.77;;;1.57;;
12129;SDS011;6128;59.340;18.040;2023-04-24T10:58:11;1.80;;;1.70;;
12129;SDS011;6128;59.340;18.040;2023-04-24T11:00:40;2.03;;;1.70;;
12129;SDS011;6128;59.340;18.040;2023-04-24T11:03:22;2.13;;;1.47;;
12129;SDS011;6128;59.340;18.040;2023-04-24T11:05:51;4.10;;;1.90;;
12129;SDS011;6128;59.340;18.040;2023-04-24T11:08:22;3.17;;;1.33;;
12129;SDS011;6128;59.340;18.040;2023-04-24T11:10:56;1.77;;;1.67;;
12129;SDS011;6128;59.340;18.040;2023-04-24T11:13:27;1.97;;;1.60;;
12129;SDS011;6128;59.340;18.040;2023-04-24T11:16:20;2.47;;;1.40;;
12129;SDS011;6128;59.340;18.040;2023-04-24T11:18:50;3.60;;;1.17;;
12129;SDS011;6128;59.340;18.040;2023-04-24T11:21:20;2.10;;;1.47;;
12129;SDS011;6128;59.340;18.040;2023-04-24T11:23:48;2.13;;;1.27;;
12129;SDS011;6128;59.340;18.040;2023-04-24T11:26:17;1.97;;;1.00;;
12129;SDS011;6128;59.340;18.040;2023-04-24T11:28:50;3.57;;;1.60;;
12129;SDS011;6128;59.340;18.040;2023-04-24T11:34:07;1.43;;;1.00;;
12129;SDS011;6128;59.340;18.040;2023-04-24T11:36:35;1.67;;;1.20;;
12129;SDS011;6128;59.340;18.040;2023-04-24T11:39:03;1.40;;;1.20;;
12129;SDS011;6128;59.340;18.040;2023-04-24T11:41:30;2.20;;;1.10;;
12129;SDS011;6128;59.340;18.040;2023-04-24T11:43:59;5.90;;;1.40;;
12129;SDS011;6128;59.340;18.040;2023-04-24T11:46:27;2.90;;;1.77;;
12129;SDS011;6128;59.340;18.040;2023-04-24T11:48:55;4.27;;;1.60;;
12129;SDS011;6128;59.340;18.040;2023-04-24T11:51:22;1.60;;;1.50;;
12129;SDS011;6128;59.340;18.040;2023-04-24T11:53:50;1.93;;;1.73;;
12129;SDS011;6128;59.340;18.040;2023-04-24T11:56:18;2.00;;;1.67;;
12129;SDS011;6128;59.340;18.040;2023-04-24T11:58:45;3.07;;;1.93;;
12129;SDS011;6128;59.340;18.040;2023-04-24T12:01:15;3.73;;;1.60;;
12129;SDS011;6128;59.340;18.040;2023-04-24T12:03:42;2.37;;;1.93;;
12129;SDS011;6128;59.340;18.040;2023-04-24T12:06:14;3.30;;;1.80;;
12129;SDS011;6128;59.340;18.040;2023-04-24T12:08:41;3.53;;;1.67;;
12129;SDS011;6128;59.340;18.040;2023-04-24T12:11:14;1.83;;;1.73;;
12129;SDS011;6128;59.340;18.040;2023-04-24T12:13:43;5.37;;;2.50;;
12129;SDS011;6128;59.340;18.040;2023-04-24T12:16:10;2.53;;;1.83;;
12129;SDS011;6128;59.340;18.040;2023-04-24T12:18:42;2.33;;;2.00;;
12129;SDS011;6128;59.340;18.040;2023-04-24T12:21:17;2.00;;;1.80;;
12129;SDS011;6128;59.340;18.040;2023-04-24T12:23:45;2.63;;;1.73;;
12129;SDS011;6128;59.340;18.040;2023-04-24T12:26:15;4.23;;;1.97;;
12129;SDS011;6128;59.340;18.040;2023-04-24T12:28:45;2.07;;;1.73;;
12129;SDS011;6128;59.340;18.040;2023-04-24T12:31:13;2.47;;;1.80;;
12129;SDS011;6128;59.340;18.040;2023-04-24T12:33:42;2.33;;;2.00;;
12129;SDS011;6128;59.340;18.040;2023-04-24T12:36:10;1.90;;;1.73;;
12129;SDS011;6128;59.340;18.040;2023-04-24T12:38:38;3.27;;;1.90;;
12129;SDS011;6128;59.340;18.040;2023-04-24T12:41:11;4.63;;;2.70;;
12129;SDS011;6128;59.340;18.040;2023-04-24T12:43:39;3.77;;;2.17;;
12129;SDS011;6128;59.340;18.040;2023-04-24T12:46:17;4.43;;;2.17;;
12129;SDS011;6128;59.340;18.040;2023-04-24T12:48:46;3.47;;;1.73;;
12129;SDS011;6128;59.340;18.040;2023-04-24T12:51:13;3.67;;;1.70;;
12129;SDS011;6128;59.340;18.040;2023-04-24T12:53:42;3.93;;;2.07;;
12129;SDS011;6128;59.340;18.040;2023-04-24T12:56:09;2.80;;;2.10;;
12129;SDS011;6128;59.340;18.040;2023-04-24T12:58:37;3.40;;;2.37;;
12129;SDS011;6128;59.340;18.040;2023-04-24T13:01:04;2.53;;;2.07;;
12129;SDS011;6128;59.340;18.040;2023-04-24T13:03:31;2.90;;;1.97;;
12129;SDS011;6128;59.340;18.040;2023-04-24T13:05:59;4.77;;;2.43;;
12129;SDS011;6128;59.340;18.040;2023-04-24T13:08:26;8.00;;;3.00;;
12129;SDS011;6128;59.340;18.040;2023-04-24T13:10:54;4.07;;;2.30;;
12129;SDS011;6128;59.340;18.040;2023-04-24T13:13:21;3.57;;;2.77;;
12129;SDS011;6128;59.340;18.040;2023-04-24T13:15:48;3.00;;;2.53;;
12129;SDS011;6128;59.340;18.040;2023-04-24T13:18:15;3.83;;;2.90;;
12129;SDS011;6128;59.340;18.040;2023-04-24T13:20:42;4.90;;;2.93;;
12129;SDS011;6128;59.340;18.040;2023-04-24T13:23:12;4.33;;;2.77;;
12129;SDS011;6128;59.340;18.040;2023-04-24T13:25:39;5.00;;;2.77;;
12129;SDS011;6128;59.340;18.040;2023-04-24T13:28:07;3.67;;;2.70;;
12129;SDS011;6128;59.340;18.040;2023-04-24T13:30:34;2.70;;;2.50;;
12129;SDS011;6128;59.340;18.040;2023-04-24T13:33:01;2.83;;;2.50;;
12129;SDS011;6128;59.340;18.040;2023-04-24T13:35:29;3.67;;;2.00;;
12129;SDS011;6128;59.340;18.040;2023-04-24T13:37:57;3.67;;;2.33;;
12129;SDS011;6128;59.340;18.040;2023-04-24T13:40:26;3.60;;;2.33;;
12129;SDS011;6128;59.340;18.040;2023-04-24T13:42:53;5.13;;;3.00;;
12129;SDS011;6128;59.340;18.040;2023-04-24T13:45:21;7.30;;;2.70;;
12129;SDS011;6128;59.340;18.040;2023-04-24T13:47:48;3.23;;;2.00;;
12129;SDS011;6128;59.340;18.040;2023-04-24T13:50:15;4.00;;;2.10;;
12129;SDS011;6128;59.340;18.040;2023-04-24T13:52:42;1.90;;;1.80;;
12129;SDS011;6128;59.340;18.040;2023-04-24T13:55:09;2.10;;;1.90;;
12129;SDS011;6128;59.340;18.040;2023-04-24T13:57:38;4.30;;;2.00;;
12129;SDS011;6128;59.340;18.040;2023-04-24T14:00:05;2.53;;;2.30;;
12129;SDS011;6128;59.340;18.040;2023-04-24T14:02:35;3.10;;;2.47;;
12129;SDS011;6128;59.340;18.040;2023-04-24T14:05:03;3.87;;;2.13;;
12129;SDS011;6128;59.340;18.040;2023-04-24T14:07:32;3.37;;;1.90;;
12129;SDS011;6128;59.340;18.040;2023-04-24T14:09:59;2.73;;;2.03;;
12129;SDS011;6128;59.340;18.040;2023-04-24T14:12:26;2.13;;;1.93;;
12129;SDS011;6128;59.340;18.040;2023-04-24T14:14:55;5.93;;;2.37;;
12129;SDS011;6128;59.340;18.040;2023-04-24T14:17:22;5.30;;;2.40;;
12129;SDS011;6128;59.340;18.040;2023-04-24T14:19:49;2.90;;;2.70;;
12129;SDS011;6128;59.340;18.040;2023-04-24T14:22:17;2.70;;;2.47;;
12129;SDS011;6128;59.340;18.040;2023-04-24T14:24:45;6.23;;;2.90;;
12129;SDS011;6128;59.340;18.040;2023-04-24T14:27:12;2.83;;;2.40;;
12129;SDS011;6128;59.340;18.040;2023-04-24T14:29:39;3.63;;;2.37;;
12129;SDS011;6128;59.340;18.040;2023-04-24T14:32:08;3.03;;;2.83;;
12129;SDS011;6128;59.340;18.040;2023-04-24T14:34:35;2.40;;;2.20;;
12129;SDS011;6128;59.340;18.040;2023-04-24T14:37:02;3.80;;;2.60;;
12129;SDS011;6128;59.340;18.040;2023-04-24T14:39:30;2.80;;;2.30;;
12129;SDS011;6128;59.340;18.040;2023-04-24T14:41:57;3.97;;;2.57;;
12129;SDS011;6128;59.340;18.040;2023-04-24T14:44:24;4.43;;;3.10;;
12129;SDS011;6128;59.340;18.040;2023-04-24T14:46:51;6.30;;;2.50;;
12129;SDS011;6128;59.340;18.040;2023-04-24T14:49:20;2.80;;;2.50;;
12129;SDS011;6128;59.340;18.040;2023-04-24T14:51:47;2.27;;;2.00;;
12129;SDS011;6128;59.340;18.040;2023-04-24T14:54:20;3.33;;;2.17;;
12129;SDS011;6128;59.340;18.040;2023-04-24T14:56:48;2.47;;;2.00;;